sensor_id;sensor_type;location;lat;lon;timestamp;pressure;altitude;pressure_sealevel;temperature;humidity
48216;BME280;34005;48.844;10.098;2023-04-28T00:00:07;96574.63;;;12.04;56.50
48216;BME280;34005;48.844;10.098;2023-04-28T00:02:37;96572.63;;;12.06;56.54
48216;BME280;34005;48.844;10.098;2023-04-28T00:05:05;96573.88;;;12.10;59.81
48216;BME280;34005;48.844;10.098;2023-04-28T00:07:33;96573.09;;;12.16;59.84
48216;BME280;34005;48.844;10.098;2023-04-28T00:10:00;96576.34;;;12.18;57.81
48216;BME280;34005;48.844;10.098;2023-04-28T00:12:30;96571.47;;;12.15;56.78
48216;BME280;34005;48.844;10.098;2023-04-28T00:14:57;96562.38;;;12.11;56.66
48216;BME280;34005;48.844;10.098;2023-04-28T00:17:25;96552.94;;;12.10;56.26
48216;BME280;34005;48.844;10.098;2023-04-28T00:19:52;96549.72;;;12.08;56.29
48216;BME280;34005;48.844;10.098;2023-04-28T00:22:20;96541.88;;;12.08;56.72
48216;BME280;34005;48.844;10.098;2023-04-28T00:24:48;96546.69;;;12.11;58.71
48216;BME280;34005;48.844;10.098;2023-04-28T00:27:15;96544.09;;;12.11;56.97
48216;BME280;34005;48.844;10.098;2023-04-28T00:29:44;96536.81;;;12.06;56.46
48216;BME280;34005;48.844;10.098;2023-04-28T00:32:12;96527.56;;;12.04;56.47
48216;BME280;34005;48.844;10.098;2023-04-28T00:34:39;96523.53;;;12.01;56.67
48216;BME280;34005;48.844;10.098;2023-04-28T00:37:07;96519.09;;;12.02;56.69
48216;BME280;34005;48.844;10.098;2023-04-28T00:39:35;96522.34;;;12.04;57.85
48216;BME280;34005;48.844;10.098;2023-04-28T00:42:02;96527.38;;;12.05;57.42
48216;BME280;34005;48.844;10.098;2023-04-28T00:44:30;96516.72;;;12.07;57.50
48216;BME280;34005;48.844;10.098;2023-04-28T00:46:59;96518.34;;;12.08;56.97
48216;BME280;34005;48.844;10.098;2023-04-28T00:49:27;96518.34;;;12.08;56.75
48216;BME280;34005;48.844;10.098;2023-04-28T00:51:54;96506.25;;;12.07;56.78
48216;BME280;34005;48.844;10.098;2023-04-28T00:54:22;96511.47;;;12.07;56.75
48216;BME280;34005;48.844;10.098;2023-04-28T00:56:51;96506.06;;;12.08;59.16
48216;BME280;34005;48.844;10.098;2023-04-28T01:01:45;96504.25;;;12.09;57.11
48216;BME280;34005;48.844;10.098;2023-04-28T01:04:16;96515.53;;;12.09;57.20
48216;BME280;34005;48.844;10.098;2023-04-28T01:06:47;96507.47;;;12.11;57.43
48216;BME280;34005;48.844;10.098;2023-04-28T01:09:15;96508.72;;;12.15;58.18
48216;BME280;34005;48.844;10.098;2023-04-28T01:11:42;96513.56;;;12.18;58.53
48216;BME280;34005;48.844;10.098;2023-04-28T01:14:10;96510.34;;;12.16;57.39
48216;BME280;34005;48.844;10.098;2023-04-28T01:16:38;96502.69;;;12.14;57.88
48216;BME280;34005;48.844;10.098;2023-04-28T01:19:07;96499.06;;;12.15;57.86
48216;BME280;34005;48.844;10.098;2023-04-28T01:21:36;96490.63;;;12.13;57.96
48216;BME280;34005;48.844;10.098;2023-04-28T01:24:06;96489.19;;;12.11;57.63
48216;BME280;34005;48.844;10.098;2023-04-28T01:26:34;96501.03;;;12.07;57.27
48216;BME280;34005;48.844;10.098;2023-04-28T01:29:01;96499.00;;;12.02;57.34
48216;BME280;34005;48.844;10.098;2023-04-28T01:31:29;96501.00;;;12.00;57.31
48216;BME280;34005;48.844;10.098;2023-04-28T01:33:57;96500.78;;;11.95;57.47
48216;BME280;34005;48.844;10.098;2023-04-28T01:36:24;96495.94;;;11.92;57.78
48216;BME280;34005;48.844;10.098;2023-04-28T01:38:52;96499.53;;;11.91;57.77
48216;BME280;34005;48.844;10.098;2023-04-28T01:41:21;96503.56;;;11.93;57.89
48216;BME280;34005;48.844;10.098;2023-04-28T01:43:49;96499.97;;;11.94;57.89
48216;BME280;34005;48.844;10.098;2023-04-28T01:46:17;96484.91;;;11.97;57.97
48216;BME280;34005;48.844;10.098;2023-04-28T01:48:44;96479.28;;;12.00;58.29
48216;BME280;34005;48.844;10.098;2023-04-28T01:51:12;96480.50;;;12.04;58.66
48216;BME280;34005;48.844;10.098;2023-04-28T01:53:40;96482.72;;;12.07;60.07
48216;BME280;34005;48.844;10.098;2023-04-28T01:56:07;96472.88;;;12.09;60.12
48216;BME280;34005;48.844;10.098;2023-04-28T01:58:36;96463.03;;;12.11;60.05
48216;BME280;34005;48.844;10.098;2023-04-28T02:01:04;96461.88;;;12.13;60.17
48216;BME280;34005;48.844;10.098;2023-04-28T02:03:32;96455.44;;;12.16;59.85
48216;BME280;34005;48.844;10.098;2023-04-28T02:06:00;96461.66;;;12.15;59.95
48216;BME280;34005;48.844;10.098;2023-04-28T02:08:27;96451.59;;;12.12;59.80
48216;BME280;34005;48.844;10.098;2023-04-28T02:10:55;96459.63;;;12.10;60.02
48216;BME280;34005;48.844;10.098;2023-04-28T02:13:23;96465.66;;;12.11;60.46
48216;BME280;34005;48.844;10.098;2023-04-28T02:15:52;96474.09;;;12.13;60.67
48216;BME280;34005;48.844;10.098;2023-04-28T02:18:19;96473.13;;;12.14;60.49
48216;BME280;34005;48.844;10.098;2023-04-28T02:20:47;96468.50;;;12.16;60.98
48216;BME280;34005;48.844;10.098;2023-04-28T02:23:14;96469.91;;;12.19;61.33
48216;BME280;34005;48.844;10.098;2023-04-28T02:25:42;96467.13;;;12.20;60.25
48216;BME280;34005;48.844;10.098;2023-04-28T02:28:10;96463.66;;;12.20;60.90
48216;BME280;34005;48.844;10.098;2023-04-28T02:30:38;96467.69;;;12.22;61.21
48216;BME280;34005;48.844;10.098;2023-04-28T02:33:07;96476.16;;;12.24;61.80
48216;BME280;34005;48.844;10.098;2023-04-28T02:35:35;96479.38;;;12.26;62.00
48216;BME280;34005;48.844;10.098;2023-04-28T02:38:02;96470.94;;;12.24;61.22
48216;BME280;34005;48.844;10.098;2023-04-28T02:40:30;96461.66;;;12.15;61.32
48216;BME280;34005;48.844;10.098;2023-04-28T02:42:57;96463.03;;;12.11;61.72
48216;BME280;34005;48.844;10.098;2023-04-28T02:45:25;96465.25;;;12.07;62.72
48216;BME280;34005;48.844;10.098;2023-04-28T02:47:53;96449.94;;;12.04;62.36
48216;BME280;34005;48.844;10.098;2023-04-28T02:50:22;96455.75;;;12.00;63.46
48216;BME280;34005;48.844;10.098;2023-04-28T02:52:50;96448.66;;;11.93;62.94
48216;BME280;34005;48.844;10.098;2023-04-28T02:55:17;96437.75;;;11.83;63.14
48216;BME280;34005;48.844;10.098;2023-04-28T02:57:49;96433.66;;;11.74;63.34
48216;BME280;34005;48.844;10.098;2023-04-28T03:00:17;96430.84;;;11.69;64.27
48216;BME280;34005;48.844;10.098;2023-04-28T03:02:45;96422.00;;;11.70;64.75
48216;BME280;34005;48.844;10.098;2023-04-28T03:05:13;96428.84;;;11.71;65.16
48216;BME280;34005;48.844;10.098;2023-04-28T03:07:42;96431.44;;;11.71;64.90
48216;BME280;34005;48.844;10.098;2023-04-28T03:10:10;96424.41;;;11.71;64.80
48216;BME280;34005;48.844;10.098;2023-04-28T03:12:37;96416.56;;;11.71;64.94
48216;BME280;34005;48.844;10.098;2023-04-28T03:15:05;96422.41;;;11.73;65.93
48216;BME280;34005;48.844;10.098;2023-04-28T03:17:34;96423.03;;;11.75;65.74
48216;BME280;34005;48.844;10.098;2023-04-28T03:20:05;96416.81;;;11.77;65.66
48216;BME280;34005;48.844;10.098;2023-04-28T03:22:33;96423.66;;;11.78;65.28
48216;BME280;34005;48.844;10.098;2023-04-28T03:25:02;96429.06;;;11.76;65.59
48216;BME280;34005;48.844;10.098;2023-04-28T03:27:30;96426.44;;;11.76;65.84
48216;BME280;34005;48.844;10.098;2023-04-28T03:29:58;96424.44;;;11.78;66.08
48216;BME280;34005;48.844;10.098;2023-04-28T03:32:26;96418.41;;;11.78;65.87
48216;BME280;34005;48.844;10.098;2023-04-28T03:34:53;96403.94;;;11.75;65.83
48216;BME280;34005;48.844;10.098;2023-04-28T03:37:21;96412.75;;;11.74;66.04
48216;BME280;34005;48.844;10.098;2023-04-28T03:39:49;96396.69;;;11.70;66.27
48216;BME280;34005;48.844;10.098;2023-04-28T03:42:17;96397.66;;;11.69;66.43
48216;BME280;34005;48.844;10.098;2023-04-28T03:44:45;96389.44;;;11.66;66.29
48216;BME280;34005;48.844;10.098;2023-04-28T03:47:13;96374.13;;;11.63;66.39
48216;BME280;34005;48.844;10.098;2023-04-28T03:49:40;96376.72;;;11.63;66.50
48216;BME280;34005;48.844;10.098;2023-04-28T03:52:08;96380.72;;;11.59;66.54
48216;BME280;34005;48.844;10.098;2023-04-28T03:54:35;96387.75;;;11.58;66.69
48216;BME280;34005;48.844;10.098;2023-04-28T03:57:03;96381.34;;;11.61;66.65
48216;BME280;34005;48.844;10.098;2023-04-28T03:59:32;96387.41;;;11.61;66.80
48216;BME280;34005;48.844;10.098;2023-04-28T04:01:59;96381.34;;;11.61;66.80
48216;BME280;34005;48.844;10.098;2023-04-28T04:04:27;96380.53;;;11.60;66.78
48216;BME280;34005;48.844;10.098;2023-04-28T04:06:55;96376.50;;;11.58;66.82
48216;BME280;34005;48.844;10.098;2023-04-28T04:09:23;96379.72;;;11.53;66.87
48216;BME280;34005;48.844;10.098;2023-04-28T04:11:50;96388.94;;;11.49;67.25
48216;BME280;34005;48.844;10.098;2023-04-28T04:14:18;96383.28;;;11.45;67.38
48216;BME280;34005;48.844;10.098;2023-04-28T04:16:47;96387.50;;;11.46;68.24
48216;BME280;34005;48.844;10.098;2023-04-28T04:19:14;96388.13;;;11.48;68.10
48216;BME280;34005;48.844;10.098;2023-04-28T04:21:42;96395.56;;;11.51;68.29
48216;BME280;34005;48.844;10.098;2023-04-28T04:24:10;96406.03;;;11.58;69.48
48216;BME280;34005;48.844;10.098;2023-04-28T04:26:37;96407.09;;;11.64;69.14
48216;BME280;34005;48.844;10.098;2023-04-28T04:29:05;96409.13;;;11.68;69.07
48216;BME280;34005;48.844;10.098;2023-04-28T04:31:32;96411.16;;;11.73;69.41
48216;BME280;34005;48.844;10.098;2023-04-28T04:34:01;96397.91;;;11.74;69.00
48216;BME280;34005;48.844;10.098;2023-04-28T04:36:29;96392.88;;;11.73;67.99
48216;BME280;34005;48.844;10.098;2023-04-28T04:38:58;96391.03;;;11.67;67.74
48216;BME280;34005;48.844;10.098;2023-04-28T04:41:25;96387.19;;;11.63;67.69
48216;BME280;34005;48.844;10.098;2023-04-28T04:43:57;96405.88;;;11.60;67.62
48216;BME280;34005;48.844;10.098;2023-04-28T04:46:56;96399.81;;;11.52;67.57
48216;BME280;34005;48.844;10.098;2023-04-28T05:27:54;96418.72;;;11.26;68.03
48216;BME280;34005;48.844;10.098;2023-04-28T05:31:01;96415.28;;;11.26;70.00
48216;BME280;34005;48.844;10.098;2023-04-28T05:33:58;96420.56;;;11.32;69.53
48216;BME280;34005;48.844;10.098;2023-04-28T05:36:26;96412.53;;;11.34;68.82
48216;BME280;34005;48.844;10.098;2023-04-28T05:38:54;96402.09;;;11.34;69.31
48216;BME280;34005;48.844;10.098;2023-04-28T05:41:22;96393.63;;;11.32;68.94
48216;BME280;34005;48.844;10.098;2023-04-28T05:43:59;96391.25;;;11.30;69.90
48216;BME280;34005;48.844;10.098;2023-04-28T05:46:26;96388.41;;;11.32;70.01
48216;BME280;34005;48.844;10.098;2023-04-28T05:48:57;96385.00;;;11.31;70.04
48216;BME280;34005;48.844;10.098;2023-04-28T05:51:25;96375.34;;;11.32;69.92
48216;BME280;34005;48.844;10.098;2023-04-28T05:53:53;96374.75;;;11.30;70.11
48216;BME280;34005;48.844;10.098;2023-04-28T05:56:21;96382.56;;;11.30;69.99
48216;BME280;34005;48.844;10.098;2023-04-28T05:58:49;96391.16;;;11.24;69.76
48216;BME280;34005;48.844;10.098;2023-04-28T06:01:23;96383.88;;;11.12;70.58
48216;BME280;34005;48.844;10.098;2023-04-28T06:03:59;96381.78;;;11.01;70.73
48216;BME280;34005;48.844;10.098;2023-04-28T06:06:54;96385.13;;;10.95;70.65
48216;BME280;34005;48.844;10.098;2023-04-28T06:10:02;96392.34;;;10.93;71.36
48216;BME280;34005;48.844;10.098;2023-04-28T06:12:53;96402.16;;;10.91;72.04
48216;BME280;34005;48.844;10.098;2023-04-28T06:15:21;96406.59;;;10.90;71.03
48216;BME280;34005;48.844;10.098;2023-04-28T06:17:53;96401.56;;;10.89;71.67
48216;BME280;34005;48.844;10.098;2023-04-28T06:20:21;96398.97;;;10.89;71.80
48216;BME280;34005;48.844;10.098;2023-04-28T06:22:49;96393.75;;;10.89;71.73
48216;BME280;34005;48.844;10.098;2023-04-28T06:25:17;96391.31;;;10.87;71.67
48216;BME280;34005;48.844;10.098;2023-04-28T06:27:45;96387.28;;;10.85;71.55
48216;BME280;34005;48.844;10.098;2023-04-28T06:30:17;96389.47;;;10.81;71.79
48216;BME280;34005;48.844;10.098;2023-04-28T06:32:46;96390.81;;;10.77;72.04
48216;BME280;34005;48.844;10.098;2023-04-28T06:35:16;96377.53;;;10.72;71.69
48216;BME280;34005;48.844;10.098;2023-04-28T06:37:47;96373.69;;;10.68;72.04
48216;BME280;34005;48.844;10.098;2023-04-28T06:40:24;96369.03;;;10.63;72.02
48216;BME280;34005;48.844;10.098;2023-04-28T06:42:52;96377.84;;;10.62;72.42
48216;BME280;34005;48.844;10.098;2023-04-28T06:45:20;96377.22;;;10.60;72.54
48216;BME280;34005;48.844;10.098;2023-04-28T06:47:48;96374.44;;;10.62;72.81
48216;BME280;34005;48.844;10.098;2023-04-28T06:50:18;96381.06;;;10.64;72.96
48216;BME280;34005;48.844;10.098;2023-04-28T06:52:45;96374.09;;;10.65;72.71
48216;BME280;34005;48.844;10.098;2023-04-28T07:06:47;96359.97;;;10.59;73.47
48216;BME280;34005;48.844;10.098;2023-04-28T07:09:17;96356.34;;;10.60;73.69
48216;BME280;34005;48.844;10.098;2023-04-28T07:11:59;96352.94;;;10.60;73.69
48216;BME280;34005;48.844;10.098;2023-04-28T07:14:27;96354.59;;;10.61;73.94
48216;BME280;34005;48.844;10.098;2023-04-28T07:16:55;96356.63;;;10.65;74.16
48216;BME280;34005;48.844;10.098;2023-04-28T07:49:13;96359.75;;;11.10;76.62
48216;BME280;34005;48.844;10.098;2023-04-28T07:51:45;96362.19;;;11.12;77.18
48216;BME280;34005;48.844;10.098;2023-04-28T07:54:55;96364.22;;;11.17;77.65
48216;BME280;34005;48.844;10.098;2023-04-28T07:57:24;96368.25;;;11.19;76.99
48216;BME280;34005;48.844;10.098;2023-04-28T07:59:52;96345.00;;;11.24;77.29
48216;BME280;34005;48.844;10.098;2023-04-28T08:02:21;96330.34;;;11.30;77.70
48216;BME280;34005;48.844;10.098;2023-04-28T08:04:51;96324.97;;;11.38;78.07
48216;BME280;34005;48.844;10.098;2023-04-28T08:07:20;96333.28;;;11.48;78.03
48216;BME280;34005;48.844;10.098;2023-04-28T08:09:48;96324.44;;;11.56;77.74
48216;BME280;34005;48.844;10.098;2023-04-28T08:12:19;96328.28;;;11.60;77.50
48216;BME280;34005;48.844;10.098;2023-04-28T08:14:47;96334.75;;;11.64;77.99
48216;BME280;34005;48.844;10.098;2023-04-28T08:17:16;96336.94;;;11.67;78.36
48216;BME280;34005;48.844;10.098;2023-04-28T08:19:46;96336.19;;;11.73;77.95
48216;BME280;34005;48.844;10.098;2023-04-28T08:22:15;96346.03;;;11.78;78.28
48216;BME280;34005;48.844;10.098;2023-04-28T08:24:43;96335.59;;;11.78;78.20
48216;BME280;34005;48.844;10.098;2023-04-28T08:30:22;96330.78;;;11.82;78.42
48216;BME280;34005;48.844;10.098;2023-04-28T08:33:01;96329.22;;;11.87;79.23
48216;BME280;34005;48.844;10.098;2023-04-28T08:41:32;96347.59;;;12.01;78.69
48216;BME280;34005;48.844;10.098;2023-04-28T08:44:51;96355.03;;;12.04;79.30
48216;BME280;34005;48.844;10.098;2023-04-28T08:47:44;96355.03;;;12.04;78.38
48216;BME280;34005;48.844;10.098;2023-04-28T08:50:19;96366.69;;;12.08;78.86
48216;BME280;34005;48.844;10.098;2023-04-28T08:52:53;96370.31;;;12.07;79.26
48216;BME280;34005;48.844;10.098;2023-04-28T08:55:24;96373.13;;;12.05;78.92
48216;BME280;34005;48.844;10.098;2023-04-28T08:58:01;96373.94;;;12.06;79.44
48216;BME280;34005;48.844;10.098;2023-04-28T09:00:30;96373.53;;;12.09;79.41
48216;BME280;34005;48.844;10.098;2023-04-28T09:02:58;96377.59;;;12.11;79.49
48216;BME280;34005;48.844;10.098;2023-04-28T09:05:26;96378.41;;;12.19;79.78
48216;BME280;34005;48.844;10.098;2023-04-28T09:07:54;96378.59;;;12.24;79.58
48216;BME280;34005;48.844;10.098;2023-04-28T09:10:23;96376.00;;;12.30;79.44
48216;BME280;34005;48.844;10.098;2023-04-28T09:12:52;96375.22;;;12.36;79.32
48216;BME280;34005;48.844;10.098;2023-04-28T09:15:35;96368.59;;;12.41;79.73
48216;BME280;34005;48.844;10.098;2023-04-28T09:18:23;96369.19;;;12.43;79.29
48216;BME280;34005;48.844;10.098;2023-04-28T09:24:27;96370.81;;;12.50;79.96
48216;BME280;34005;48.844;10.098;2023-04-28T09:26:55;96370.00;;;12.56;79.27
48216;BME280;34005;48.844;10.098;2023-04-28T09:29:23;96366.78;;;12.61;79.16
48216;BME280;34005;48.844;10.098;2023-04-28T09:31:52;96372.84;;;12.68;79.22
48216;BME280;34005;48.844;10.098;2023-04-28T09:34:20;96375.06;;;12.78;79.28
48216;BME280;34005;48.844;10.098;2023-04-28T09:36:48;96368.00;;;12.92;79.27
48216;BME280;34005;48.844;10.098;2023-04-28T09:39:27;96370.84;;;13.04;79.32
48216;BME280;34005;48.844;10.098;2023-04-28T09:41:55;96370.03;;;13.10;78.76
48216;BME280;34005;48.844;10.098;2023-04-28T09:44:22;96375.66;;;13.13;78.83
48216;BME280;34005;48.844;10.098;2023-04-28T09:46:51;96375.66;;;13.13;78.98
48216;BME280;34005;48.844;10.098;2023-04-28T09:49:19;96379.28;;;13.12;78.84
48216;BME280;34005;48.844;10.098;2023-04-28T09:51:47;96385.13;;;13.14;79.12
48216;BME280;34005;48.844;10.098;2023-04-28T09:54:15;96377.88;;;13.16;79.50
48216;BME280;34005;48.844;10.098;2023-04-28T09:56:46;96386.53;;;13.24;80.15
48216;BME280;34005;48.844;10.098;2023-04-28T09:59:14;96377.25;;;13.28;79.58
48216;BME280;34005;48.844;10.098;2023-04-28T10:01:42;96380.50;;;13.30;79.39
48216;BME280;34005;48.844;10.098;2023-04-28T10:04:11;96375.66;;;13.33;79.59
48216;BME280;34005;48.844;10.098;2023-04-28T10:06:40;96366.38;;;13.37;79.54
48216;BME280;34005;48.844;10.098;2023-04-28T10:09:09;96370.00;;;13.43;79.18
48216;BME280;34005;48.844;10.098;2023-04-28T10:11:37;96359.31;;;13.51;79.44
48216;BME280;34005;48.844;10.098;2023-04-28T10:14:06;96361.69;;;13.59;79.24
48216;BME280;34005;48.844;10.098;2023-04-28T10:16:33;96354.78;;;13.72;79.45
48216;BME280;34005;48.844;10.098;2023-04-28T10:19:01;96347.91;;;13.84;79.61
48216;BME280;34005;48.844;10.098;2023-04-28T10:21:34;96347.44;;;13.94;79.58
48216;BME280;34005;48.844;10.098;2023-04-28T10:24:09;96344.78;;;14.00;79.49
48216;BME280;34005;48.844;10.098;2023-04-28T10:27:01;96347.38;;;14.07;80.50
48216;BME280;34005;48.844;10.098;2023-04-28T10:29:30;96346.34;;;14.15;79.06
48216;BME280;34005;48.844;10.098;2023-04-28T10:32:18;96350.13;;;14.19;80.07
48216;BME280;34005;48.844;10.098;2023-04-28T10:34:46;96352.94;;;14.24;79.29
48216;BME280;34005;48.844;10.098;2023-04-28T10:37:15;96339.00;;;14.30;79.36
48216;BME280;34005;48.844;10.098;2023-04-28T10:42:51;96351.84;;;14.38;79.65
48216;BME280;34005;48.844;10.098;2023-04-28T10:48:46;96352.88;;;14.37;79.80
48216;BME280;34005;48.844;10.098;2023-04-28T10:51:21;96353.47;;;14.39;80.30
48216;BME280;34005;48.844;10.098;2023-04-28T10:54:16;96350.63;;;14.41;79.99
48216;BME280;34005;48.844;10.098;2023-04-28T10:57:18;96354.66;;;14.43;79.98
48216;BME280;34005;48.844;10.098;2023-04-28T10:59:47;96352.81;;;14.44;79.56
48216;BME280;34005;48.844;10.098;2023-04-28T11:02:34;96359.91;;;14.43;80.40
48216;BME280;34005;48.844;10.098;2023-04-28T11:05:10;96354.22;;;14.47;80.02
48216;BME280;34005;48.844;10.098;2023-04-28T11:07:38;96352.56;;;14.52;80.08
48216;BME280;34005;48.844;10.098;2023-04-28T11:10:07;96352.16;;;14.55;79.97
48216;BME280;34005;48.844;10.098;2023-04-28T11:12:35;96355.78;;;14.61;80.09
48216;BME280;34005;48.844;10.098;2023-04-28T11:15:11;96358.56;;;14.66;81.00
48216;BME280;34005;48.844;10.098;2023-04-28T11:17:40;96358.94;;;14.70;80.38
48216;BME280;34005;48.844;10.098;2023-04-28T11:20:11;96352.47;;;14.72;80.58
48216;BME280;34005;48.844;10.098;2023-04-28T11:22:39;96354.88;;;14.74;80.24
48216;BME280;34005;48.844;10.098;2023-04-28T11:25:08;96364.16;;;14.76;80.29
48216;BME280;34005;48.844;10.098;2023-04-28T11:27:36;96355.22;;;14.77;80.24
48216;BME280;34005;48.844;10.098;2023-04-28T11:30:18;96360.47;;;14.77;81.04
48216;BME280;34005;48.844;10.098;2023-04-28T11:32:48;96372.03;;;14.76;80.57
48216;BME280;34005;48.844;10.098;2023-04-28T11:35:16;96374.66;;;14.76;80.48
48216;BME280;34005;48.844;10.098;2023-04-28T11:37:44;96375.66;;;14.75;80.78
48216;BME280;34005;48.844;10.098;2023-04-28T11:40:14;96365.97;;;14.76;81.11
48216;BME280;34005;48.844;10.098;2023-04-28T11:42:46;96380.91;;;14.75;81.22
48216;BME280;34005;48.844;10.098;2023-04-28T11:45:14;96373.63;;;14.77;80.85
48216;BME280;34005;48.844;10.098;2023-04-28T11:47:42;96369.75;;;14.80;80.68
48216;BME280;34005;48.844;10.098;2023-04-28T11:50:09;96373.78;;;14.82;80.52
48216;BME280;34005;48.844;10.098;2023-04-28T11:52:47;96377.41;;;14.81;81.47
48216;BME280;34005;48.844;10.098;2023-04-28T11:55:19;96379.03;;;14.82;80.73
48216;BME280;34005;48.844;10.098;2023-04-28T11:57:46;96379.41;;;14.86;80.57
48216;BME280;34005;48.844;10.098;2023-04-28T12:00:15;96377.38;;;14.88;81.05
48216;BME280;34005;48.844;10.098;2023-04-28T12:02:47;96371.31;;;14.88;80.90
48216;BME280;34005;48.844;10.098;2023-04-28T12:05:15;96375.34;;;14.90;80.91
48216;BME280;34005;48.844;10.098;2023-04-28T12:07:43;96380.38;;;14.92;81.01
48216;BME280;34005;48.844;10.098;2023-04-28T12:10:13;96380.97;;;14.94;80.96
48216;BME280;34005;48.844;10.098;2023-04-28T12:12:43;96375.28;;;14.97;81.25
48216;BME280;34005;48.844;10.098;2023-04-28T12:15:18;96373.25;;;14.99;80.90
48216;BME280;34005;48.844;10.098;2023-04-28T12:17:47;96366.56;;;15.03;80.90
48216;BME280;34005;48.844;10.098;2023-04-28T12:20:34;96361.63;;;15.13;81.31
48216;BME280;34005;48.844;10.098;2023-04-28T12:23:02;96371.41;;;15.24;80.72
48216;BME280;34005;48.844;10.098;2023-04-28T12:25:30;96367.69;;;15.32;80.63
48216;BME280;34005;48.844;10.098;2023-04-28T12:28:01;96361.16;;;15.41;80.71
48216;BME280;34005;48.844;10.098;2023-04-28T12:30:31;96357.19;;;15.51;80.87
48216;BME280;34005;48.844;10.098;2023-04-28T12:32:59;96366.59;;;15.58;80.53
48216;BME280;34005;48.844;10.098;2023-04-28T12:35:28;96357.84;;;15.64;80.18
48216;BME280;34005;48.844;10.098;2023-04-28T12:37:56;96352.72;;;15.70;80.04
48216;BME280;34005;48.844;10.098;2023-04-28T12:40:24;96351.88;;;15.76;79.74
48216;BME280;34005;48.844;10.098;2023-04-28T12:42:52;96356.28;;;15.82;79.77
48216;BME280;34005;48.844;10.098;2023-04-28T12:45:21;96355.81;;;15.85;79.93
48216;BME280;34005;48.844;10.098;2023-04-28T12:47:49;96361.06;;;15.85;79.68
48216;BME280;34005;48.844;10.098;2023-04-28T12:50:16;96359.69;;;15.82;79.68
48216;BME280;34005;48.844;10.098;2023-04-28T12:52:44;96363.78;;;15.78;79.87
48216;BME280;34005;48.844;10.098;2023-04-28T12:55:12;96365.69;;;15.71;80.12
48216;BME280;34005;48.844;10.098;2023-04-28T12:57:39;96370.00;;;15.65;80.21
48216;BME280;34005;48.844;10.098;2023-04-28T13:00:08;96375.88;;;15.61;80.36
48216;BME280;34005;48.844;10.098;2023-04-28T13:02:37;96382.84;;;15.55;80.12
48216;BME280;34005;48.844;10.098;2023-04-28T13:05:06;96389.75;;;15.50;80.32
48216;BME280;34005;48.844;10.098;2023-04-28T13:07:34;96374.44;;;15.47;80.66
48216;BME280;34005;48.844;10.098;2023-04-28T13:10:02;96370.41;;;15.44;80.91
48216;BME280;34005;48.844;10.098;2023-04-28T13:12:29;96373.03;;;15.44;81.32
48216;BME280;34005;48.844;10.098;2023-04-28T13:15:00;96368.78;;;15.43;81.11
48216;BME280;34005;48.844;10.098;2023-04-28T13:17:27;96366.16;;;15.43;80.83
48216;BME280;34005;48.844;10.098;2023-04-28T16:01:12;96316.19;;;15.06;82.08
48216;BME280;34005;48.844;10.098;2023-04-28T16:03:40;96321.91;;;15.03;81.80
48216;BME280;34005;48.844;10.098;2023-04-28T16:06:10;96318.09;;;14.99;82.06
48216;BME280;34005;48.844;10.098;2023-04-28T16:08:38;96304.38;;;14.97;82.48
48216;BME280;34005;48.844;10.098;2023-04-28T16:11:09;96307.00;;;14.97;83.15
48216;BME280;34005;48.844;10.098;2023-04-28T16:13:43;96312.25;;;14.97;82.99
48216;BME280;34005;48.844;10.098;2023-04-28T16:16:12;96308.22;;;14.94;83.65
48216;BME280;34005;48.844;10.098;2023-04-28T16:18:39;96305.41;;;14.96;83.76
48216;BME280;34005;48.844;10.098;2023-04-28T16:21:07;96301.16;;;14.95;83.69
48216;BME280;34005;48.844;10.098;2023-04-28T16:23:34;96296.94;;;14.94;83.62
48216;BME280;34005;48.844;10.098;2023-04-28T16:26:03;96305.81;;;14.93;83.59
48216;BME280;34005;48.844;10.098;2023-04-28T16:28:31;96299.75;;;14.92;83.65
48216;BME280;34005;48.844;10.098;2023-04-28T16:30:58;96299.75;;;14.92;83.28
48216;BME280;34005;48.844;10.098;2023-04-28T16:33:27;96294.72;;;14.91;83.58
48216;BME280;34005;48.844;10.098;2023-04-28T16:35:56;96296.56;;;14.90;83.45
48216;BME280;34005;48.844;10.098;2023-04-28T16:38:24;96294.13;;;14.89;83.71
48216;BME280;34005;48.844;10.098;2023-04-28T16:40:52;96303.03;;;14.88;84.05
48216;BME280;34005;48.844;10.098;2023-04-28T16:43:20;96299.25;;;14.83;84.17
48216;BME280;34005;48.844;10.098;2023-04-28T16:45:47;96300.28;;;14.82;84.38
48216;BME280;34005;48.844;10.098;2023-04-28T16:48:15;96290.56;;;14.83;84.51
48216;BME280;34005;48.844;10.098;2023-04-28T16:50:46;96288.72;;;14.83;84.50
48216;BME280;34005;48.844;10.098;2023-04-28T16:53:14;96291.34;;;14.83;84.33
48216;BME280;34005;48.844;10.098;2023-04-28T16:55:41;96298.44;;;14.83;84.30
48216;BME280;34005;48.844;10.098;2023-04-28T16:58:09;96297.84;;;14.81;84.42
48216;BME280;34005;48.844;10.098;2023-04-28T17:00:36;96281.31;;;14.80;84.37
48216;BME280;34005;48.844;10.098;2023-04-28T17:03:04;96282.50;;;14.78;84.25
48216;BME280;34005;48.844;10.098;2023-04-28T17:05:32;96280.13;;;14.76;84.24
48216;BME280;34005;48.844;10.098;2023-04-28T17:08:01;96273.50;;;14.74;84.09
48216;BME280;34005;48.844;10.098;2023-04-28T17:10:29;96272.44;;;14.75;84.15
48216;BME280;34005;48.844;10.098;2023-04-28T17:12:57;96300.34;;;14.76;84.43
48216;BME280;34005;48.844;10.098;2023-04-28T17:15:25;96328.63;;;14.74;84.60
48216;BME280;34005;48.844;10.098;2023-04-28T17:17:52;96362.38;;;14.70;84.98
48216;BME280;34005;48.844;10.098;2023-04-28T17:20:21;96390.66;;;14.68;85.60
48216;BME280;34005;48.844;10.098;2023-04-28T17:22:49;96413.69;;;14.66;85.42
48216;BME280;34005;48.844;10.098;2023-04-28T17:25:21;96409.06;;;14.61;84.86
48216;BME280;34005;48.844;10.098;2023-04-28T17:27:49;96373.56;;;14.52;81.29